sensor_id;sensor_type;location;lat;lon;timestamp;P1;durP1;ratioP1;P2;durP2;ratioP2
60068;SDS011;45945;53.350;55.922;2022-12-18T00:00:59;12.80;;;6.25;;
60068;SDS011;45945;53.350;55.922;2022-12-18T00:01:59;16.85;;;7.03;;
60068;SDS011;45945;53.350;55.922;2022-12-18T00:03:01;13.73;;;6.07;;
60068;SDS011;45945;53.350;55.922;2022-12-18T00:04:05;13.48;;;7.47;;
60068;SDS011;45945;53.350;55.922;2022-12-18T00:05:07;14.55;;;5.72;;
60068;SDS011;45945;53.350;55.922;2022-12-18T00:06:08;15.32;;;7.50;;
60068;SDS011;45945;53.350;55.922;2022-12-18T00:07:08;12.85;;;6.30;;
60068;SDS011;45945;53.350;55.922;2022-12-18T00:08:09;15.55;;;7.05;;
60068;SDS011;45945;53.350;55.922;2022-12-18T00:09:10;12.77;;;5.38;;
60068;SDS011;45945;53.350;55.922;2022-12-18T00:10:11;13.23;;;6.63;;
60068;SDS011;45945;53.350;55.922;2022-12-18T00:11:13;11.65;;;5.97;;
60068;SDS011;45945;53.350;55.922;2022-12-18T00:12:14;15.43;;;7.60;;
60068;SDS011;45945;53.350;55.922;2022-12-18T00:13:15;13.45;;;6.63;;
60068;SDS011;45945;53.350;55.922;2022-12-18T00:14:16;13.95;;;6.18;;
60068;SDS011;45945;53.350;55.922;2022-12-18T00:15:17;15.57;;;7.35;;
60068;SDS011;45945;53.350;55.922;2022-12-18T00:16:18;15.10;;;6.82;;
60068;SDS011;45945;53.350;55.922;2022-12-18T00:17:22;12.63;;;5.85;;
60068;SDS011;45945;53.350;55.922;2022-12-18T00:18:23;12.48;;;5.28;;
60068;SDS011;45945;53.350;55.922;2022-12-18T00:19:24;9.13;;;4.00;;
60068;SDS011;45945;53.350;55.922;2022-12-18T00:20:24;10.45;;;5.75;;
60068;SDS011;45945;53.350;55.922;2022-12-18T00:21:26;10.18;;;4.30;;
60068;SDS011;45945;53.350;55.922;2022-12-18T00:22:28;13.00;;;5.78;;
60068;SDS011;45945;53.350;55.922;2022-12-18T00:23:29;14.45;;;6.18;;
60068;SDS011;45945;53.350;55.922;2022-12-18T00:24:31;9.23;;;4.93;;
60068;SDS011;45945;53.350;55.922;2022-12-18T00:25:35;13.93;;;6.43;;
60068;SDS011;45945;53.350;55.922;2022-12-18T00:26:37;14.18;;;6.38;;
60068;SDS011;45945;53.350;55.922;2022-12-18T00:27:38;9.50;;;4.65;;
60068;SDS011;45945;53.350;55.922;2022-12-18T00:28:39;10.18;;;5.10;;
60068;SDS011;45945;53.350;55.922;2022-12-18T00:29:40;12.65;;;6.85;;
60068;SDS011;45945;53.350;55.922;2022-12-18T00:30:40;14.23;;;6.22;;
60068;SDS011;45945;53.350;55.922;2022-12-18T00:31:42;11.20;;;5.10;;
60068;SDS011;45945;53.350;55.922;2022-12-18T00:32:43;14.73;;;6.35;;
60068;SDS011;45945;53.350;55.922;2022-12-18T00:33:44;11.38;;;5.25;;
60068;SDS011;45945;53.350;55.922;2022-12-18T00:34:45;11.35;;;5.15;;
60068;SDS011;45945;53.350;55.922;2022-12-18T00:35:45;12.75;;;5.13;;
60068;SDS011;45945;53.350;55.922;2022-12-18T00:36:47;13.38;;;4.95;;
60068;SDS011;45945;53.350;55.922;2022-12-18T00:37:47;12.23;;;6.00;;
60068;SDS011;45945;53.350;55.922;2022-12-18T00:38:48;12.88;;;5.15;;
60068;SDS011;45945;53.350;55.922;2022-12-18T00:39:51;11.05;;;4.80;;
60068;SDS011;45945;53.350;55.922;2022-12-18T00:40:54;15.57;;;6.32;;
60068;SDS011;45945;53.350;55.922;2022-12-18T00:41:54;13.45;;;5.18;;
60068;SDS011;45945;53.350;55.922;2022-12-18T00:43:14;10.55;;;4.38;;
60068;SDS011;45945;53.350;55.922;2022-12-18T00:44:16;12.48;;;5.88;;
60068;SDS011;45945;53.350;55.922;2022-12-18T00:45:16;10.25;;;4.80;;
60068;SDS011;45945;53.350;55.922;2022-12-18T00:46:17;10.05;;;3.95;;
60068;SDS011;45945;53.350;55.922;2022-12-18T00:47:18;13.05;;;4.95;;
60068;SDS011;45945;53.350;55.922;2022-12-18T00:48:19;10.52;;;4.93;;
60068;SDS011;45945;53.350;55.922;2022-12-18T00:49:20;10.15;;;4.18;;
60068;SDS011;45945;53.350;55.922;2022-12-18T00:50:22;11.70;;;5.50;;
60068;SDS011;45945;53.350;55.922;2022-12-18T00:51:23;9.00;;;4.35;;
60068;SDS011;45945;53.350;55.922;2022-12-18T00:52:24;11.10;;;4.22;;
60068;SDS011;45945;53.350;55.922;2022-12-18T00:53:25;9.07;;;4.03;;
60068;SDS011;45945;53.350;55.922;2022-12-18T00:54:25;13.13;;;4.90;;
60068;SDS011;45945;53.350;55.922;2022-12-18T00:55:26;10.80;;;4.07;;
60068;SDS011;45945;53.350;55.922;2022-12-18T00:56:27;9.93;;;3.45;;
60068;SDS011;45945;53.350;55.922;2022-12-18T00:57:28;7.15;;;3.38;;
60068;SDS011;45945;53.350;55.922;2022-12-18T00:58:28;10.02;;;4.00;;
60068;SDS011;45945;53.350;55.922;2022-12-18T00:59:29;11.23;;;4.45;;
60068;SDS011;45945;53.350;55.922;2022-12-18T01:00:30;9.82;;;4.47;;
60068;SDS011;45945;53.350;55.922;2022-12-18T01:01:31;9.25;;;3.65;;
60068;SDS011;45945;53.350;55.922;2022-12-18T01:02:33;7.38;;;4.15;;
60068;SDS011;45945;53.350;55.922;2022-12-18T01:03:34;9.48;;;4.05;;
60068;SDS011;45945;53.350;55.922;2022-12-18T01:04:34;9.40;;;3.63;;
60068;SDS011;45945;53.350;55.922;2022-12-18T01:05:38;10.25;;;3.20;;
60068;SDS011;45945;53.350;55.922;2022-12-18T01:06:39;11.70;;;4.30;;
60068;SDS011;45945;53.350;55.922;2022-12-18T01:07:40;9.65;;;3.80;;
60068;SDS011;45945;53.350;55.922;2022-12-18T01:08:41;11.15;;;3.60;;
60068;SDS011;45945;53.350;55.922;2022-12-18T01:09:45;10.43;;;3.17;;
60068;SDS011;45945;53.350;55.922;2022-12-18T01:10:45;9.88;;;3.30;;
60068;SDS011;45945;53.350;55.922;2022-12-18T01:11:46;8.73;;;3.00;;
60068;SDS011;45945;53.350;55.922;2022-12-18T01:12:47;10.27;;;4.13;;
60068;SDS011;45945;53.350;55.922;2022-12-18T01:13:48;11.00;;;3.85;;
60068;SDS011;45945;53.350;55.922;2022-12-18T01:14:49;6.10;;;2.55;;
60068;SDS011;45945;53.350;55.922;2022-12-18T01:15:50;8.70;;;3.13;;
60068;SDS011;45945;53.350;55.922;2022-12-18T01:16:51;9.10;;;4.28;;
60068;SDS011;45945;53.350;55.922;2022-12-18T01:17:52;13.57;;;4.28;;
60068;SDS011;45945;53.350;55.922;2022-12-18T01:18:53;8.15;;;3.50;;
60068;SDS011;45945;53.350;55.922;2022-12-18T01:19:55;8.73;;;3.70;;
60068;SDS011;45945;53.350;55.922;2022-12-18T01:20:55;8.98;;;2.85;;
60068;SDS011;45945;53.350;55.922;2022-12-18T01:21:56;10.10;;;4.07;;
60068;SDS011;45945;53.350;55.922;2022-12-18T01:22:57;8.10;;;3.22;;
60068;SDS011;45945;53.350;55.922;2022-12-18T01:23:58;9.18;;;3.85;;
60068;SDS011;45945;53.350;55.922;2022-12-18T01:24:58;9.32;;;4.05;;
60068;SDS011;45945;53.350;55.922;2022-12-18T01:26:04;9.05;;;3.65;;
60068;SDS011;45945;53.350;55.922;2022-12-18T01:27:05;8.63;;;3.50;;
60068;SDS011;45945;53.350;55.922;2022-12-18T01:28:05;9.15;;;3.25;;
60068;SDS011;45945;53.350;55.922;2022-12-18T01:29:06;10.30;;;3.33;;
60068;SDS011;45945;53.350;55.922;2022-12-18T01:30:07;7.38;;;2.88;;
60068;SDS011;45945;53.350;55.922;2022-12-18T01:32:11;9.88;;;3.25;;
60068;SDS011;45945;53.350;55.922;2022-12-18T01:33:12;9.35;;;4.07;;
60068;SDS011;45945;53.350;55.922;2022-12-18T01:34:13;7.75;;;3.10;;
60068;SDS011;45945;53.350;55.922;2022-12-18T01:35:14;10.48;;;3.10;;
60068;SDS011;45945;53.350;55.922;2022-12-18T01:36:22;7.57;;;2.97;;
60068;SDS011;45945;53.350;55.922;2022-12-18T01:37:24;8.30;;;3.40;;
60068;SDS011;45945;53.350;55.922;2022-12-18T01:38:25;9.25;;;3.33;;
60068;SDS011;45945;53.350;55.922;2022-12-18T01:39:25;11.10;;;2.95;;
60068;SDS011;45945;53.350;55.922;2022-12-18T01:40:26;9.55;;;3.00;;
60068;SDS011;45945;53.350;55.922;2022-12-18T01:41:28;8.50;;;2.70;;
60068;SDS011;45945;53.350;55.922;2022-12-18T01:42:52;9.98;;;3.75;;
60068;SDS011;45945;53.350;55.922;2022-12-18T01:43:54;5.00;;;2.20;;
60068;SDS011;45945;53.350;55.922;2022-12-18T01:45:58;9.55;;;3.70;;
60068;SDS011;45945;53.350;55.922;2022-12-18T01:46:59;5.07;;;1.80;;
60068;SDS011;45945;53.350;55.922;2022-12-18T01:48:05;8.65;;;2.60;;
60068;SDS011;45945;53.350;55.922;2022-12-18T01:49:07;7.72;;;3.13;;
60068;SDS011;45945;53.350;55.922;2022-12-18T01:51:11;10.20;;;3.92;;
60068;SDS011;45945;53.350;55.922;2022-12-18T01:52:14;8.63;;;3.30;;
60068;SDS011;45945;53.350;55.922;2022-12-18T01:53:17;7.13;;;3.05;;
60068;SDS011;45945;53.350;55.922;2022-12-18T01:54:19;6.65;;;2.92;;
60068;SDS011;45945;53.350;55.922;2022-12-18T01:55:22;9.43;;;3.80;;
60068;SDS011;45945;53.350;55.922;2022-12-18T01:56:24;7.13;;;2.63;;
60068;SDS011;45945;53.350;55.922;2022-12-18T01:57:24;10.13;;;3.53;;
60068;SDS011;45945;53.350;55.922;2022-12-18T01:59:45;7.23;;;2.73;;
60068;SDS011;45945;53.350;55.922;2022-12-18T02:00:48;8.02;;;2.47;;
60068;SDS011;45945;53.350;55.922;2022-12-18T02:01:49;7.47;;;2.88;;
60068;SDS011;45945;53.350;55.922;2022-12-18T02:02:50;9.43;;;3.00;;
60068;SDS011;45945;53.350;55.922;2022-12-18T02:03:52;7.00;;;2.33;;
60068;SDS011;45945;53.350;55.922;2022-12-18T02:04:55;7.72;;;2.90;;
60068;SDS011;45945;53.350;55.922;2022-12-18T02:10:06;7.72;;;3.00;;
60068;SDS011;45945;53.350;55.922;2022-12-18T02:12:19;7.32;;;2.05;;
60068;SDS011;45945;53.350;55.922;2022-12-18T02:17:18;13.88;;;3.25;;
60068;SDS011;45945;53.350;55.922;2022-12-18T02:18:21;9.10;;;3.38;;
60068;SDS011;45945;53.350;55.922;2022-12-18T02:20:36;6.72;;;2.70;;
60068;SDS011;45945;53.350;55.922;2022-12-18T02:21:57;8.45;;;3.08;;
60068;SDS011;45945;53.350;55.922;2022-12-18T02:24:22;6.93;;;2.15;;
60068;SDS011;45945;53.350;55.922;2022-12-18T02:25:33;8.93;;;3.08;;
60068;SDS011;45945;53.350;55.922;2022-12-18T02:26:57;9.48;;;3.05;;
60068;SDS011;45945;53.350;55.922;2022-12-18T02:28:01;7.43;;;3.08;;
60068;SDS011;45945;53.350;55.922;2022-12-18T02:30:10;8.98;;;3.90;;
60068;SDS011;45945;53.350;55.922;2022-12-18T02:31:14;7.47;;;2.58;;
60068;SDS011;45945;53.350;55.922;2022-12-18T02:32:18;9.40;;;3.10;;
60068;SDS011;45945;53.350;55.922;2022-12-18T02:33:20;9.95;;;3.05;;
60068;SDS011;45945;53.350;55.922;2022-12-18T02:34:27;23.88;;;3.80;;
60068;SDS011;45945;53.350;55.922;2022-12-18T02:35:29;6.18;;;2.42;;
60068;SDS011;45945;53.350;55.922;2022-12-18T02:36:33;6.28;;;2.47;;
60068;SDS011;45945;53.350;55.922;2022-12-18T02:37:34;7.53;;;2.80;;
60068;SDS011;45945;53.350;55.922;2022-12-18T02:38:39;10.55;;;3.60;;
60068;SDS011;45945;53.350;55.922;2022-12-18T02:39:46;16.20;;;3.92;;
60068;SDS011;45945;53.350;55.922;2022-12-18T02:40:48;8.77;;;3.60;;
60068;SDS011;45945;53.350;55.922;2022-12-18T02:41:51;8.57;;;2.92;;
60068;SDS011;45945;53.350;55.922;2022-12-18T02:42:54;7.78;;;2.88;;
60068;SDS011;45945;53.350;55.922;2022-12-18T02:43:56;6.00;;;2.28;;
60068;SDS011;45945;53.350;55.922;2022-12-18T02:44:57;8.68;;;2.90;;
60068;SDS011;45945;53.350;55.922;2022-12-18T02:46:00;9.70;;;3.45;;
60068;SDS011;45945;53.350;55.922;2022-12-18T02:47:03;7.68;;;2.47;;
60068;SDS011;45945;53.350;55.922;2022-12-18T02:48:04;10.02;;;2.75;;
60068;SDS011;45945;53.350;55.922;2022-12-18T02:51:22;6.75;;;2.88;;
60068;SDS011;45945;53.350;55.922;2022-12-18T02:52:38;8.35;;;3.88;;
60068;SDS011;45945;53.350;55.922;2022-12-18T02:53:45;10.00;;;3.60;;
60068;SDS011;45945;53.350;55.922;2022-12-18T02:57:02;10.82;;;3.70;;
60068;SDS011;45945;53.350;55.922;2022-12-18T02:58:10;8.50;;;3.30;;
60068;SDS011;45945;53.350;55.922;2022-12-18T02:59:15;9.23;;;3.35;;
60068;SDS011;45945;53.350;55.922;2022-12-18T03:00:28;5.22;;;2.35;;
60068;SDS011;45945;53.350;55.922;2022-12-18T03:01:36;9.55;;;4.07;;
60068;SDS011;45945;53.350;55.922;2022-12-18T03:02:53;9.15;;;3.40;;
60068;SDS011;45945;53.350;55.922;2022-12-18T03:04:04;13.80;;;4.32;;
60068;SDS011;45945;53.350;55.922;2022-12-18T03:06:13;7.32;;;2.55;;
60068;SDS011;45945;53.350;55.922;2022-12-18T03:07:20;8.63;;;2.78;;
60068;SDS011;45945;53.350;55.922;2022-12-18T03:08:27;10.55;;;3.58;;
60068;SDS011;45945;53.350;55.922;2022-12-18T03:09:38;6.30;;;2.10;;
60068;SDS011;45945;53.350;55.922;2022-12-18T03:10:42;7.50;;;3.05;;
60068;SDS011;45945;53.350;55.922;2022-12-18T03:11:45;7.60;;;3.15;;
60068;SDS011;45945;53.350;55.922;2022-12-18T03:13:11;8.20;;;2.85;;
60068;SDS011;45945;53.350;55.922;2022-12-18T03:14:12;20.92;;;4.25;;
60068;SDS011;45945;53.350;55.922;2022-12-18T03:16:19;10.95;;;3.95;;
60068;SDS011;45945;53.350;55.922;2022-12-18T03:17:22;9.05;;;3.42;;
60068;SDS011;45945;53.350;55.922;2022-12-18T03:18:26;7.90;;;3.15;;
60068;SDS011;45945;53.350;55.922;2022-12-18T03:19:29;9.85;;;4.25;;
60068;SDS011;45945;53.350;55.922;2022-12-18T03:20:34;12.60;;;3.75;;
60068;SDS011;45945;53.350;55.922;2022-12-18T03:21:40;10.70;;;3.20;;
60068;SDS011;45945;53.350;55.922;2022-12-18T03:22:43;10.10;;;3.95;;
60068;SDS011;45945;53.350;55.922;2022-12-18T03:23:48;10.30;;;3.33;;
60068;SDS011;45945;53.350;55.922;2022-12-18T03:24:49;9.82;;;3.10;;
60068;SDS011;45945;53.350;55.922;2022-12-18T03:25:52;9.82;;;3.65;;
60068;SDS011;45945;53.350;55.922;2022-12-18T03:26:58;10.27;;;3.05;;
60068;SDS011;45945;53.350;55.922;2022-12-18T03:28:01;12.75;;;3.92;;
60068;SDS011;45945;53.350;55.922;2022-12-18T03:29:04;8.55;;;3.38;;
60068;SDS011;45945;53.350;55.922;2022-12-18T03:30:10;8.27;;;2.92;;
60068;SDS011;45945;53.350;55.922;2022-12-18T03:31:13;9.60;;;3.20;;
60068;SDS011;45945;53.350;55.922;2022-12-18T03:32:20;11.88;;;4.00;;
60068;SDS011;45945;53.350;55.922;2022-12-18T03:33:29;11.93;;;4.75;;
60068;SDS011;45945;53.350;55.922;2022-12-18T03:34:32;8.73;;;3.08;;
60068;SDS011;45945;53.350;55.922;2022-12-18T03:35:40;7.88;;;3.10;;
60068;SDS011;45945;53.350;55.922;2022-12-18T03:36:42;11.20;;;3.90;;
60068;SDS011;45945;53.350;55.922;2022-12-18T03:37:43;12.02;;;3.20;;
60068;SDS011;45945;53.350;55.922;2022-12-18T03:38:44;8.18;;;3.03;;
60068;SDS011;45945;53.350;55.922;2022-12-18T03:39:45;6.20;;;2.13;;
60068;SDS011;45945;53.350;55.922;2022-12-18T03:42:07;8.38;;;3.30;;
60068;SDS011;45945;53.350;55.922;2022-12-18T03:43:20;9.07;;;2.95;;
60068;SDS011;45945;53.350;55.922;2022-12-18T03:45:48;10.70;;;3.20;;
60068;SDS011;45945;53.350;55.922;2022-12-18T03:49:05;7.75;;;2.78;;
60068;SDS011;45945;53.350;55.922;2022-12-18T03:50:14;8.13;;;2.60;;
60068;SDS011;45945;53.350;55.922;2022-12-18T03:51:25;8.30;;;3.10;;
60068;SDS011;45945;53.350;55.922;2022-12-18T03:52:28;10.75;;;3.30;;
60068;SDS011;45945;53.350;55.922;2022-12-18T03:53:41;10.80;;;3.53;;
60068;SDS011;45945;53.350;55.922;2022-12-18T03:54:45;7.03;;;2.40;;
60068;SDS011;45945;53.350;55.922;2022-12-18T03:55:51;11.43;;;3.08;;
60068;SDS011;45945;53.350;55.922;2022-12-18T03:56:59;9.68;;;3.75;;
60068;SDS011;45945;53.350;55.922;2022-12-18T03:58:03;9.38;;;3.03;;
60068;SDS011;45945;53.350;55.922;2022-12-18T03:59:15;12.13;;;3.25;;
60068;SDS011;45945;53.350;55.922;2022-12-18T04:00:17;8.63;;;2.63;;
60068;SDS011;45945;53.350;55.922;2022-12-18T04:01:34;8.85;;;3.63;;
60068;SDS011;45945;53.350;55.922;2022-12-18T04:02:36;8.40;;;3.15;;
60068;SDS011;45945;53.350;55.922;2022-12-18T04:03:38;10.25;;;3.45;;
60068;SDS011;45945;53.350;55.922;2022-12-18T04:04:41;9.63;;;3.05;;
60068;SDS011;45945;53.350;55.922;2022-12-18T04:05:43;12.02;;;3.15;;
60068;SDS011;45945;53.350;55.922;2022-12-18T04:06:45;7.35;;;2.35;;
60068;SDS011;45945;53.350;55.922;2022-12-18T04:07:47;8.65;;;2.45;;
60068;SDS011;45945;53.350;55.922;2022-12-18T04:08:49;8.88;;;3.42;;
60068;SDS011;45945;53.350;55.922;2022-12-18T04:09:55;16.42;;;3.70;;
60068;SDS011;45945;53.350;55.922;2022-12-18T04:10:57;9.50;;;3.50;;
60068;SDS011;45945;53.350;55.922;2022-12-18T04:11:59;6.55;;;2.47;;
60068;SDS011;45945;53.350;55.922;2022-12-18T04:13:00;8.82;;;3.30;;
60068;SDS011;45945;53.350;55.922;2022-12-18T04:14:02;8.40;;;2.78;;
60068;SDS011;45945;53.350;55.922;2022-12-18T04:15:03;8.25;;;3.38;;
60068;SDS011;45945;53.350;55.922;2022-12-18T04:16:04;9.68;;;3.30;;
60068;SDS011;45945;53.350;55.922;2022-12-18T04:17:06;6.10;;;2.42;;
60068;SDS011;45945;53.350;55.922;2022-12-18T04:18:07;5.28;;;1.90;;
60068;SDS011;45945;53.350;55.922;2022-12-18T04:19:13;8.32;;;2.67;;
60068;SDS011;45945;53.350;55.922;2022-12-18T04:20:17;8.68;;;2.95;;
60068;SDS011;45945;53.350;55.922;2022-12-18T04:21:19;9.38;;;3.20;;
60068;SDS011;45945;53.350;55.922;2022-12-18T04:22:21;9.55;;;3.08;;
60068;SDS011;45945;53.350;55.922;2022-12-18T04:23:27;7.78;;;2.88;;
60068;SDS011;45945;53.350;55.922;2022-12-18T04:24:31;8.27;;;2.42;;
60068;SDS011;45945;53.350;55.922;2022-12-18T04:25:41;7.00;;;2.72;;
60068;SDS011;45945;53.350;55.922;2022-12-18T04:26:45;6.68;;;2.63;;
60068;SDS011;45945;53.350;55.922;2022-12-18T04:28:06;8.48;;;2.65;;
60068;SDS011;45945;53.350;55.922;2022-12-18T04:29:08;10.60;;;3.03;;
60068;SDS011;45945;53.350;55.922;2022-12-18T04:30:09;8.68;;;3.05;;
60068;SDS011;45945;53.350;55.922;2022-12-18T04:31:10;8.80;;;2.45;;
60068;SDS011;45945;53.350;55.922;2022-12-18T04:32:11;6.50;;;2.85;;
60068;SDS011;45945;53.350;55.922;2022-12-18T04:33:16;9.68;;;3.55;;
60068;SDS011;45945;53.350;55.922;2022-12-18T04:34:17;7.88;;;2.47;;
60068;SDS011;45945;53.350;55.922;2022-12-18T04:35:23;8.95;;;3.15;;
60068;SDS011;45945;53.350;55.922;2022-12-18T04:36:27;7.93;;;2.80;;
60068;SDS011;45945;53.350;55.922;2022-12-18T04:37:28;7.82;;;2.83;;
60068;SDS011;45945;53.350;55.922;2022-12-18T04:38:29;9.85;;;3.60;;
60068;SDS011;45945;53.350;55.922;2022-12-18T04:39:38;8.82;;;3.60;;
60068;SDS011;45945;53.350;55.922;2022-12-18T04:40:45;9.85;;;3.28;;
60068;SDS011;45945;53.350;55.922;2022-12-18T04:41:54;7.72;;;2.55;;
60068;SDS011;45945;53.350;55.922;2022-12-18T04:42:55;8.27;;;2.63;;
60068;SDS011;45945;53.350;55.922;2022-12-18T04:43:55;10.30;;;3.30;;
60068;SDS011;45945;53.350;55.922;2022-12-18T04:44:56;11.68;;;3.38;;
60068;SDS011;45945;53.350;55.922;2022-12-18T04:46:06;6.68;;;2.35;;
60068;SDS011;45945;53.350;55.922;2022-12-18T04:47:07;10.45;;;3.15;;
60068;SDS011;45945;53.350;55.922;2022-12-18T04:48:08;9.32;;;3.17;;
60068;SDS011;45945;53.350;55.922;2022-12-18T04:49:09;8.63;;;2.78;;
60068;SDS011;45945;53.350;55.922;2022-12-18T04:50:11;10.27;;;2.70;;
60068;SDS011;45945;53.350;55.922;2022-12-18T04:51:11;11.93;;;3.67;;
60068;SDS011;45945;53.350;55.922;2022-12-18T04:52:13;8.30;;;2.45;;
60068;SDS011;45945;53.350;55.922;2022-12-18T04:53:14;8.27;;;3.22;;
60068;SDS011;45945;53.350;55.922;2022-12-18T04:54:14;8.95;;;3.50;;
60068;SDS011;45945;53.350;55.922;2022-12-18T04:55:15;11.68;;;3.10;;
60068;SDS011;45945;53.350;55.922;2022-12-18T04:56:16;7.15;;;2.35;;
60068;SDS011;45945;53.350;55.922;2022-12-18T04:57:17;10.25;;;3.35;;
60068;SDS011;45945;53.350;55.922;2022-12-18T04:58:20;10.82;;;3.17;;
60068;SDS011;45945;53.350;55.922;2022-12-18T04:59:21;7.50;;;2.50;;
60068;SDS011;45945;53.350;55.922;2022-12-18T05:00:22;9.10;;;2.58;;
60068;SDS011;45945;53.350;55.922;2022-12-18T05:01:23;8.63;;;2.80;;
60068;SDS011;45945;53.350;55.922;2022-12-18T05:02:23;7.78;;;2.42;;
60068;SDS011;45945;53.350;55.922;2022-12-18T05:03:24;7.18;;;3.03;;
60068;SDS011;45945;53.350;55.922;2022-12-18T05:04:25;10.73;;;3.08;;
60068;SDS011;45945;53.350;55.922;2022-12-18T05:05:27;10.70;;;3.50;;
60068;SDS011;45945;53.350;55.922;2022-12-18T05:06:29;6.63;;;2.35;;
60068;SDS011;45945;53.350;55.922;2022-12-18T05:07:30;8.30;;;3.50;;
60068;SDS011;45945;53.350;55.922;2022-12-18T05:08:31;11.13;;;3.83;;
60068;SDS011;45945;53.350;55.922;2022-12-18T05:09:32;5.47;;;1.95;;
60068;SDS011;45945;53.350;55.922;2022-12-18T05:10:32;8.35;;;3.05;;
60068;SDS011;45945;53.350;55.922;2022-12-18T05:11:33;9.18;;;3.40;;
60068;SDS011;45945;53.350;55.922;2022-12-18T05:12:34;5.10;;;2.33;;
60068;SDS011;45945;53.350;55.922;2022-12-18T05:13:54;10.25;;;3.28;;
60068;SDS011;45945;53.350;55.922;2022-12-18T05:14:56;8.10;;;2.92;;
60068;SDS011;45945;53.350;55.922;2022-12-18T05:15:57;8.68;;;2.58;;
60068;SDS011;45945;53.350;55.922;2022-12-18T05:16:57;8.10;;;3.45;;
60068;SDS011;45945;53.350;55.922;2022-12-18T05:17:58;10.50;;;3.13;;
60068;SDS011;45945;53.350;55.922;2022-12-18T05:19:02;9.70;;;3.10;;
60068;SDS011;45945;53.350;55.922;2022-12-18T05:20:03;8.52;;;2.25;;
60068;SDS011;45945;53.350;55.922;2022-12-18T05:21:04;11.27;;;3.75;;
60068;SDS011;45945;53.350;55.922;2022-12-18T05:22:08;11.00;;;3.45;;
60068;SDS011;45945;53.350;55.922;2022-12-18T05:23:09;10.82;;;3.22;;
60068;SDS011;45945;53.350;55.922;2022-12-18T05:24:10;8.63;;;3.08;;
60068;SDS011;45945;53.350;55.922;2022-12-18T05:25:10;7.50;;;3.03;;
60068;SDS011;45945;53.350;55.922;2022-12-18T05:26:14;9.60;;;2.97;;
60068;SDS011;45945;53.350;55.922;2022-12-18T05:27:15;6.55;;;2.75;;
60068;SDS011;45945;53.350;55.922;2022-12-18T05:28:16;8.02;;;3.25;;
60068;SDS011;45945;53.350;55.922;2022-12-18T05:29:17;10.20;;;2.60;;
60068;SDS011;45945;53.350;55.922;2022-12-18T05:30:17;8.98;;;2.67;;
60068;SDS011;45945;53.350;55.922;2022-12-18T05:31:18;9.32;;;2.15;;
60068;SDS011;45945;53.350;55.922;2022-12-18T05:32:19;8.40;;;3.00;;
60068;SDS011;45945;53.350;55.922;2022-12-18T05:33:20;8.63;;;2.55;;
60068;SDS011;45945;53.350;55.922;2022-12-18T05:34:21;8.73;;;3.05;;
60068;SDS011;45945;53.350;55.922;2022-12-18T05:35:22;10.90;;;2.75;;
60068;SDS011;45945;53.350;55.922;2022-12-18T05:36:22;7.95;;;2.78;;
60068;SDS011;45945;53.350;55.922;2022-12-18T05:37:23;7.53;;;2.45;;
60068;SDS011;45945;53.350;55.922;2022-12-18T05:38:24;8.93;;;3.03;;
60068;SDS011;45945;53.350;55.922;2022-12-18T05:39:25;11.40;;;3.13;;
60068;SDS011;45945;53.350;55.922;2022-12-18T05:40:26;8.25;;;2.90;;
60068;SDS011;45945;53.350;55.922;2022-12-18T05:41:27;8.40;;;2.92;;
60068;SDS011;45945;53.350;55.922;2022-12-18T05:42:29;8.80;;;2.80;;
60068;SDS011;45945;53.350;55.922;2022-12-18T05:43:30;8.43;;;2.80;;
60068;SDS011;45945;53.350;55.922;2022-12-18T05:44:30;6.00;;;2.25;;
60068;SDS011;45945;53.350;55.922;2022-12-18T05:45:31;7.80;;;2.88;;
60068;SDS011;45945;53.350;55.922;2022-12-18T05:46:32;7.03;;;2.38;;
60068;SDS011;45945;53.350;55.922;2022-12-18T05:47:33;9.90;;;3.28;;
60068;SDS011;45945;53.350;55.922;2022-12-18T05:48:34;8.73;;;2.17;;
60068;SDS011;45945;53.350;55.922;2022-12-18T05:49:35;9.20;;;2.50;;
60068;SDS011;45945;53.350;55.922;2022-12-18T05:50:36;7.35;;;3.05;;
60068;SDS011;45945;53.350;55.922;2022-12-18T05:51:37;6.88;;;2.38;;
60068;SDS011;45945;53.350;55.922;2022-12-18T05:52:38;7.78;;;2.45;;
60068;SDS011;45945;53.350;55.922;2022-12-18T05:53:39;8.65;;;3.20;;
60068;SDS011;45945;53.350;55.922;2022-12-18T05:54:39;9.07;;;3.38;;
60068;SDS011;45945;53.350;55.922;2022-12-18T05:55:41;8.73;;;3.25;;
60068;SDS011;45945;53.350;55.922;2022-12-18T05:56:41;7.88;;;2.95;;
60068;SDS011;45945;53.350;55.922;2022-12-18T05:57:42;10.88;;;3.72;;
60068;SDS011;45945;53.350;55.922;2022-12-18T05:58:43;9.48;;;3.28;;
60068;SDS011;45945;53.350;55.922;2022-12-18T05:59:44;8.40;;;3.13;;
60068;SDS011;45945;53.350;55.922;2022-12-18T06:00:45;9.95;;;3.33;;
60068;SDS011;45945;53.350;55.922;2022-12-18T06:01:46;14.30;;;3.78;;
60068;SDS011;45945;53.350;55.922;2022-12-18T06:02:47;7.80;;;2.72;;
60068;SDS011;45945;53.350;55.922;2022-12-18T06:03:48;12.07;;;4.78;;
60068;SDS011;45945;53.350;55.922;2022-12-18T06:04:49;10.05;;;3.67;;
60068;SDS011;45945;53.350;55.922;2022-12-18T06:05:50;8.57;;;3.08;;
60068;SDS011;45945;53.350;55.922;2022-12-18T06:06:51;9.80;;;2.88;;
60068;SDS011;45945;53.350;55.922;2022-12-18T06:07:52;9.02;;;3.03;;
60068;SDS011;45945;53.350;55.922;2022-12-18T06:08:53;9.93;;;3.58;;
60068;SDS011;45945;53.350;55.922;2022-12-18T06:09:54;11.77;;;4.28;;
60068;SDS011;45945;53.350;55.922;2022-12-18T06:10:55;9.57;;;3.72;;
60068;SDS011;45945;53.350;55.922;2022-12-18T06:11:55;10.18;;;3.33;;
60068;SDS011;45945;53.350;55.922;2022-12-18T06:12:56;11.00;;;3.35;;
60068;SDS011;45945;53.350;55.922;2022-12-18T06:13:57;12.48;;;2.92;;
60068;SDS011;45945;53.350;55.922;2022-12-18T06:14:58;11.18;;;3.85;;
60068;SDS011;45945;53.350;55.922;2022-12-18T06:16:01;9.23;;;3.40;;
60068;SDS011;45945;53.350;55.922;2022-12-18T06:17:02;9.82;;;2.88;;
60068;SDS011;45945;53.350;55.922;2022-12-18T06:18:03;9.40;;;4.13;;
60068;SDS011;45945;53.350;55.922;2022-12-18T06:19:04;9.70;;;3.58;;
60068;SDS011;45945;53.350;55.922;2022-12-18T06:20:05;8.63;;;3.17;;
60068;SDS011;45945;53.350;55.922;2022-12-18T06:21:07;9.77;;;3.22;;
60068;SDS011;45945;53.350;55.922;2022-12-18T06:22:08;10.88;;;4.05;;
60068;SDS011;45945;53.350;55.922;2022-12-18T06:23:11;12.27;;;3.63;;
60068;SDS011;45945;53.350;55.922;2022-12-18T06:24:12;12.88;;;4.13;;
60068;SDS011;45945;53.350;55.922;2022-12-18T06:25:13;9.68;;;3.28;;
60068;SDS011;45945;53.350;55.922;2022-12-18T06:26:14;11.65;;;3.85;;
60068;SDS011;45945;53.350;55.922;2022-12-18T06:27:15;9.90;;;4.22;;
60068;SDS011;45945;53.350;55.922;2022-12-18T06:28:16;7.38;;;2.65;;
60068;SDS011;45945;53.350;55.922;2022-12-18T06:29:16;9.93;;;3.05;;
60068;SDS011;45945;53.350;55.922;2022-12-18T06:30:17;10.77;;;3.47;;
60068;SDS011;45945;53.350;55.922;2022-12-18T06:31:18;14.38;;;3.38;;
60068;SDS011;45945;53.350;55.922;2022-12-18T06:32:19;8.02;;;2.97;;
60068;SDS011;45945;53.350;55.922;2022-12-18T06:33:20;12.10;;;3.85;;
60068;SDS011;45945;53.350;55.922;2022-12-18T06:34:20;9.20;;;3.00;;
60068;SDS011;45945;53.350;55.922;2022-12-18T06:35:21;9.18;;;4.10;;
60068;SDS011;45945;53.350;55.922;2022-12-18T06:36:22;10.65;;;4.30;;
60068;SDS011;45945;53.350;55.922;2022-12-18T06:37:24;9.63;;;2.72;;
60068;SDS011;45945;53.350;55.922;2022-12-18T06:38:26;11.43;;;3.95;;
60068;SDS011;45945;53.350;55.922;2022-12-18T06:39:27;9.77;;;3.38;;
60068;SDS011;45945;53.350;55.922;2022-12-18T06:40:28;11.70;;;4.38;;